Time;durP1;ratioP1;P1;durP2;ratioP2;P2;SDS_P1;SDS_P2;PMS_P1;PMS_P2;Temp;Humidity;BMP_temperature;BMP_pressure;BME280_temperature;BME280_humidity;BME280_pressure;Samples;Min_cycle;Max_cycle;Signal;HPM_P1;HPM_P2
2023/05/14 00:04:41;;;;;;;9.73;7.18;;;14.70;1.00;;;;;;10294694;28;20590;-76
2023/05/14 00:10:02;;;;;;;12.48;7.32;;;14.70;1.00;;;;;;10279907;28;20256;-77
2023/05/14 00:15:24;;;;;;;11.93;7.30;;;14.60;1.00;;;;;;10320594;28;20427;-76
2023/05/14 00:20:45;;;;;;;12.73;7.97;;;14.50;1.00;;;;;;10302584;28;20224;-75
2023/05/14 00:26:06;;;;;;;12.90;7.72;;;14.30;1.00;;;;;;10305462;28;20283;-75
2023/05/14 00:31:26;;;;;;;14.35;7.90;;;14.30;1.00;;;;;;10299951;28;20290;-76
2023/05/14 00:36:49;;;;;;;14.38;8.77;;;14.30;1.00;;;;;;10319258;28;20500;-76
2023/05/14 00:42:10;;;;;;;14.90;8.68;;;14.20;1.00;;;;;;10312703;28;20264;-76
2023/05/14 00:47:33;;;;;;;14.57;8.43;;;14.10;28.80;;;;;;10317195;28;20508;-77
2023/05/14 00:52:55;;;;;;;15.93;8.93;;;14.00;56.10;;;;;;10313239;28;20211;-76
2023/05/14 00:58:18;;;;;;;14.95;9.52;;;13.90;1.00;;;;;;10319015;28;20274;-76
2023/05/14 01:03:39;;;;;;;17.73;10.00;;;13.70;54.70;;;;;;10296584;28;20243;-78
2023/05/14 01:09:15;;;;;;;14.40;10.27;;;13.70;99.90;;;;;;10276956;28;20201;-77
2023/05/14 01:14:57;;;;;;;18.30;10.68;;;13.60;99.90;;;;;;10313282;28;20235;-78
2023/05/14 01:20:18;;;;;;;14.68;11.05;;;13.50;1.00;;;;;;10300984;28;20256;-76
2023/05/14 01:25:40;;;;;;;17.20;11.30;;;13.50;99.90;;;;;;10276686;29;20239;-77
2023/05/14 01:31:12;;;;;;;14.43;10.95;;;13.30;99.90;;;;;;10289665;28;20238;-76
2023/05/14 01:36:34;;;;;;;14.52;10.15;;;13.30;1.00;;;;;;10316194;28;20194;-76
2023/05/14 01:41:56;;;;;;;18.60;10.13;;;13.20;1.00;;;;;;10310483;28;20209;-76
2023/05/14 01:47:23;;;;;;;15.98;9.57;;;13.10;1.00;;;;;;10316921;28;20202;-76
2023/05/14 01:52:47;;;;;;;13.45;9.30;;;13.10;1.00;;;;;;10309489;28;20232;-77
2023/05/14 01:58:08;;;;;;;13.10;9.02;;;13.00;1.00;;;;;;10315430;28;20203;-79
2023/05/14 02:03:29;;;;;;;16.70;10.48;;;12.90;1.00;;;;;;10303064;28;20252;-76
2023/05/14 02:08:51;;;;;;;20.38;10.27;;;12.90;1.00;;;;;;10273962;29;20207;-76
2023/05/14 02:14:14;;;;;;;16.40;11.55;;;12.80;1.00;;;;;;10275054;29;20201;-77
2023/05/14 02:19:34;;;;;;;14.70;9.80;;;12.80;1.00;;;;;;10273381;28;20207;-78
2023/05/14 02:24:56;;;;;;;14.13;8.95;;;12.70;1.00;;;;;;10314430;28;20537;-76
2023/05/14 02:30:17;;;;;;;13.30;9.48;;;12.70;1.00;;;;;;10293513;28;20274;-77
2023/05/14 02:35:39;;;;;;;14.90;9.13;;;12.70;1.00;;;;;;10293465;28;20289;-76
2023/05/14 02:41:00;;;;;;;12.02;8.77;;;12.70;1.00;;;;;;10315113;28;20197;-76
2023/05/14 02:46:22;;;;;;;11.75;8.80;;;12.60;1.00;;;;;;10313611;28;20241;-76
2023/05/14 02:51:43;;;;;;;14.38;9.15;;;12.60;1.00;;;;;;10307883;28;20517;-76
2023/05/14 02:57:04;;;;;;;14.40;9.10;;;12.60;1.00;;;;;;10313813;28;20519;-76
2023/05/14 03:02:25;;;;;;;13.10;9.77;;;12.50;1.00;;;;;;10303201;28;20571;-78
2023/05/14 03:07:46;;;;;;;19.45;8.40;;;12.50;43.00;;;;;;10222068;28;20376;-77
2023/05/14 03:13:07;;;;;;;12.80;8.98;;;12.50;30.00;;;;;;10268668;29;20201;-77
2023/05/14 03:18:29;;;;;;;14.23;8.90;;;12.50;1.00;;;;;;10282306;28;20213;-76
2023/05/14 03:23:51;;;;;;;14.90;9.70;;;12.50;99.90;;;;;;10273961;29;20305;-77
2023/05/14 03:29:16;;;;;;;13.52;8.35;;;12.50;89.90;;;;;;10272467;28;20244;-75
2023/05/14 03:34:37;;;;;;;12.98;8.30;;;12.60;99.90;;;;;;10302179;28;20212;-76
2023/05/14 03:39:59;;;;;;;18.52;8.73;;;12.60;99.90;;;;;;10312749;28;20193;-77
2023/05/14 03:45:21;;;;;;;15.13;8.75;;;12.60;99.90;;;;;;10306638;28;20612;-76
2023/05/14 03:50:42;;;;;;;13.88;9.18;;;12.70;72.10;;;;;;10234055;29;20203;-77
2023/05/14 03:56:04;;;;;;;16.38;10.73;;;12.80;99.90;;;;;;10246587;29;20480;-79
2023/05/14 04:01:25;;;;;;;19.13;11.35;;;12.90;70.60;;;;;;10254245;28;20280;-77
2023/05/14 04:06:46;;;;;;;22.17;12.60;;;12.90;1.00;;;;;;10274751;28;20247;-78
2023/05/14 04:12:08;;;;;;;18.80;10.80;;;13.00;81.10;;;;;;10272202;29;20230;-77
2023/05/14 04:17:28;;;;;;;17.23;10.23;;;13.10;99.90;;;;;;10290112;28;20216;-76
2023/05/14 04:22:50;;;;;;;15.07;9.73;;;13.20;1.00;;;;;;10278942;28;20221;-76
2023/05/14 04:28:11;;;;;;;26.08;14.38;;;13.40;1.00;;;;;;10279473;28;20240;-77
2023/05/14 04:33:32;;;;;;;25.02;17.95;;;13.60;1.00;;;;;;10302862;28;20362;-78
2023/05/14 04:38:53;;;;;;;22.23;15.63;;;13.80;1.00;;;;;;10319464;28;20204;-76
2023/05/14 04:44:14;;;;;;;16.35;12.90;;;13.90;1.00;;;;;;10313372;28;20235;-79
2023/05/14 04:49:35;;;;;;;14.48;10.55;;;14.10;1.00;;;;;;10320503;28;20194;-77
2023/05/14 04:54:56;;;;;;;11.57;8.07;;;14.30;99.90;;;;;;10321922;28;20264;-77
2023/05/14 05:00:20;;;;;;;11.15;7.75;;;14.50;99.90;;;;;;10323301;28;20194;-76
2023/05/14 05:05:41;;;;;;;8.98;5.95;;;14.60;99.90;;;;;;10288890;28;20224;-78
2023/05/14 05:11:02;;;;;;;11.93;5.85;;;14.80;99.90;;;;;;10288505;28;20491;-77
2023/05/14 05:16:23;;;;;;;7.22;5.60;;;15.00;99.90;;;;;;10318218;28;20197;-77
2023/05/14 05:21:44;;;;;;;7.28;4.75;;;15.10;99.90;;;;;;10286885;28;20204;-78
2023/05/14 05:27:05;;;;;;;6.40;4.55;;;15.30;99.90;;;;;;10297857;28;20558;-79
2023/05/14 05:32:26;;;;;;;10.80;4.63;;;15.60;23.90;;;;;;10278096;28;20201;-77
2023/05/14 05:37:47;;;;;;;6.88;4.05;;;15.80;1.00;;;;;;10277490;28;20199;-78
2023/05/14 05:43:08;;;;;;;5.55;4.50;;;16.00;1.00;;;;;;10307703;28;20249;-76
2023/05/14 05:48:29;;;;;;;8.27;4.68;;;16.30;1.00;;;;;;10316918;28;20198;-77
2023/05/14 05:53:50;;;;;;;6.78;5.20;;;16.50;1.00;;;;;;10311419;28;20194;-79
2023/05/14 05:59:11;;;;;;;7.10;4.50;;;16.70;1.00;;;;;;10316542;28;20190;-77
2023/05/14 06:04:32;;;;;;;8.43;3.95;;;16.90;1.00;;;;;;10295793;28;20264;-77
2023/05/14 06:09:53;;;;;;;9.90;4.50;;;17.10;1.00;;;;;;10276067;28;20195;-77
2023/05/14 06:15:14;;;;;;;13.98;4.90;;;17.40;1.00;;;;;;10275997;28;20217;-78
2023/05/14 06:20:35;;;;;;;7.03;3.92;;;17.70;1.00;;;;;;10275562;28;20316;-79
2023/05/14 06:25:55;;;;;;;4.78;4.07;;;18.10;1.00;;;;;;10293642;28;20238;-77
2023/05/14 06:31:18;;;;;;;6.43;4.55;;;18.60;1.00;;;;;;10286588;28;20384;-77
2023/05/14 06:36:39;;;;;;;6.75;4.10;;;19.20;1.00;;;;;;10275167;28;20214;-76
2023/05/14 06:42:00;;;;;;;4.85;3.50;;;20.10;1.00;;;;;;10308341;28;20229;-78
2023/05/14 06:47:23;;;;;;;7.57;3.72;;;20.90;1.00;;;;;;10314062;28;20218;-77
2023/05/14 06:52:44;;;;;;;4.88;3.40;;;21.70;1.00;;;;;;10309231;28;20210;-77
2023/05/14 06:58:06;;;;;;;6.15;3.53;;;22.40;1.00;;;;;;10260133;28;20459;-77
2023/05/14 07:03:28;;;;;;;7.15;3.42;;;22.90;99.90;;;;;;10274276;28;20233;-77
2023/05/14 07:08:48;;;;;;;9.05;3.45;;;23.50;1.00;;;;;;10281983;28;20210;-78
2023/05/14 07:14:09;;;;;;;8.25;3.10;;;23.90;1.00;;;;;;10274374;28;20191;-78
2023/05/14 07:19:30;;;;;;;6.43;3.28;;;24.40;1.00;;;;;;10274234;28;20253;-77
2023/05/14 07:24:51;;;;;;;6.10;2.83;;;24.70;1.00;;;;;;10291182;28;20269;-77
2023/05/14 07:30:12;;;;;;;15.15;3.88;;;25.10;99.90;;;;;;10293909;28;20195;-76
2023/05/14 07:35:34;;;;;;;12.48;3.25;;;25.10;99.90;;;;;;10272789;29;20201;-77
2023/05/14 07:40:55;;;;;;;6.40;2.88;;;25.50;1.00;;;;;;10302896;28;20267;-78
2023/05/14 07:46:16;;;;;;;8.18;2.47;;;25.50;1.00;;;;;;10313802;28;20297;-79
2023/05/14 07:51:38;;;;;;;4.47;2.35;;;25.80;1.00;;;;;;10308305;28;20198;-77
2023/05/14 07:56:59;;;;;;;5.93;3.10;;;26.50;1.00;;;;;;10317431;28;20286;-78
2023/05/14 08:02:20;;;;;;;10.88;2.70;;;27.00;1.00;;;;;;10303333;28;20209;-77
2023/05/14 08:07:41;;;;;;;4.47;2.70;;;27.30;1.00;;;;;;10262392;28;20388;-78
2023/05/14 08:13:02;;;;;;;6.07;3.25;;;27.70;1.00;;;;;;10286732;28;20206;-78
2023/05/14 08:18:23;;;;;;;4.55;2.08;;;27.90;1.00;;;;;;10278693;28;20230;-78
2023/05/14 08:23:44;;;;;;;3.20;2.22;;;27.90;1.00;;;;;;10279003;29;20479;-78
2023/05/14 08:29:06;;;;;;;4.05;2.55;;;27.70;1.00;;;;;;10279927;28;20199;-78
2023/05/14 08:34:28;;;;;;;6.55;2.50;;;27.70;1.00;;;;;;10300163;28;20217;-78
2023/05/14 08:39:50;;;;;;;2.80;2.22;;;27.50;1.00;;;;;;10319460;28;20255;-77
2023/05/14 08:45:19;;;;;;;4.50;2.40;;;27.90;1.00;;;;;;10318901;28;20265;-76
2023/05/14 08:50:42;;;;;;;4.97;2.13;;;28.20;1.00;;;;;;10309863;28;20278;-78
2023/05/14 08:56:04;;;;;;;4.47;2.63;;;28.10;1.00;;;;;;10304217;28;20208;-78
2023/05/14 09:01:25;;;;;;;2.80;1.80;;;28.50;1.00;;;;;;10313102;28;20210;-78
2023/05/14 09:06:50;;;;;;;6.18;2.22;;;28.90;1.00;;;;;;10278760;28;20238;-79
2023/05/14 09:12:11;;;;;;;7.10;2.42;;;28.90;1.00;;;;;;10278512;28;20203;-77
2023/05/14 09:17:33;;;;;;;2.25;1.80;;;29.00;1.00;;;;;;10289277;28;20241;-78
2023/05/14 09:22:55;;;;;;;4.50;2.00;;;29.00;1.00;;;;;;10278623;28;20187;-78
2023/05/14 09:28:17;;;;;;;6.57;2.67;;;28.80;1.00;;;;;;10276578;28;20239;-78
2023/05/14 09:33:39;;;;;;;3.47;2.30;;;28.90;1.00;;;;;;10294833;28;20203;-78
2023/05/14 09:39:02;;;;;;;6.18;2.92;;;28.90;1.00;;;;;;10317181;28;20191;-79
2023/05/14 09:44:24;;;;;;;2.85;2.10;;;28.70;1.00;;;;;;10315777;28;20233;-78
2023/05/14 09:49:47;;;;;;;6.53;2.92;;;29.20;1.00;;;;;;10280319;28;20230;-77
2023/05/14 09:55:09;;;;;;;4.97;2.67;;;29.30;1.00;;;;;;10276779;28;20192;-78
2023/05/14 10:00:34;;;;;;;10.07;2.78;;;29.70;1.00;;;;;;10277747;28;20249;-79
2023/05/14 10:06:02;;;;;;;3.20;2.42;;;29.40;1.00;;;;;;10284621;28;20269;-78
2023/05/14 10:11:26;;;;;;;2.95;2.35;;;29.70;1.00;;;;;;10275930;29;20209;-78
2023/05/14 10:16:50;;;;;;;9.13;2.65;;;29.30;1.00;;;;;;10287920;28;20210;-78
2023/05/14 10:22:13;;;;;;;3.80;2.42;;;29.40;1.00;;;;;;10290912;28;20195;-76
2023/05/14 10:27:35;;;;;;;5.50;2.40;;;29.10;1.00;;;;;;10273920;28;20430;-77
2023/05/14 10:33:07;;;;;;;6.65;2.20;;;29.60;1.00;;;;;;10284698;28;20417;-78
2023/05/14 10:38:31;;;;;;;6.88;2.20;;;29.60;1.00;;;;;;10315498;28;20209;-75
2023/05/14 10:43:52;;;;;;;4.05;2.08;;;29.00;1.00;;;;;;10314828;28;20400;-78
2023/05/14 10:49:13;;;;;;;5.57;3.30;;;29.70;1.00;;;;;;10297341;28;20203;-77
2023/05/14 10:54:35;;;;;;;4.30;2.03;;;29.20;1.00;;;;;;10313465;28;20236;-77
2023/05/14 10:59:58;;;;;;;4.80;2.00;;;28.90;1.00;;;;;;10314342;28;20432;-78
2023/05/14 11:05:19;;;;;;;2.65;2.38;;;29.00;1.00;;;;;;10278142;28;20223;-78
2023/05/14 11:10:41;;;;;;;7.80;2.45;;;29.70;1.00;;;;;;10274432;29;20245;-76
2023/05/14 11:16:02;;;;;;;8.63;2.78;;;29.50;1.00;;;;;;10272159;29;20286;-78
2023/05/14 11:21:30;;;;;;;6.70;2.15;;;29.20;1.00;;;;;;10286558;28;20274;-76
2023/05/14 11:26:54;;;;;;;6.22;2.13;;;27.70;1.00;;;;;;10274214;29;20565;-74
2023/05/14 11:32:16;;;;;;;9.50;2.75;;;27.00;1.00;;;;;;10293616;28;20209;-77
2023/05/14 11:37:37;;;;;;;12.10;2.80;;;27.60;1.00;;;;;;10333413;28;20190;-77
2023/05/14 11:42:58;;;;;;;4.25;2.20;;;28.30;1.00;;;;;;10321599;28;20241;-76
2023/05/14 11:48:19;;;;;;;2.17;1.88;;;27.60;1.00;;;;;;10316026;28;20224;-77
2023/05/14 11:53:41;;;;;;;7.05;2.10;;;26.80;1.00;;;;;;10321716;28;20191;-76
2023/05/14 11:59:02;;;;;;;3.22;1.95;;;26.00;1.00;;;;;;10321263;28;20265;-76
2023/05/14 12:04:23;;;;;;;2.00;1.80;;;25.30;1.00;;;;;;10294761;28;20222;-77
2023/05/14 12:09:48;;;;;;;6.28;2.35;;;24.70;1.00;;;;;;10280661;28;20201;-77
2023/05/14 12:15:13;;;;;;;3.65;2.50;;;;;;;;;;10265259;29;20451;-76
2023/05/14 12:20:34;;;;;;;8.80;2.80;;;24.10;1.00;;;;;;10280403;28;20199;-75
2023/05/14 12:26:00;;;;;;;5.80;1.90;;;23.90;1.00;;;;;;10278628;29;20544;-76
2023/05/14 12:31:30;;;;;;;3.40;2.42;;;23.90;1.00;;;;;;10287980;28;20233;-75
2023/05/14 12:36:51;;;;;;;2.30;1.85;;;23.60;1.00;;;;;;10318997;28;20372;-75
2023/05/14 12:42:15;;;;;;;2.40;2.20;;;23.20;99.90;;;;;;10318394;28;20212;-77
2023/05/14 12:47:36;;;;;;;3.88;2.47;;;23.20;99.90;;;;;;10307667;28;20237;-78
2023/05/14 12:52:57;;;;;;;2.53;2.20;;;23.30;99.90;;;;;;10306733;28;20393;-78
2023/05/14 12:58:17;;;;;;;4.70;3.00;;;23.40;99.90;;;;;;10312037;28;20273;-76
2023/05/14 13:03:39;;;;;;;6.15;2.25;;;23.70;99.90;;;;;;10305337;28;20504;-76
2023/05/14 13:09:01;;;;;;;2.50;1.95;;;23.70;99.90;;;;;;10282605;28;20206;-76
2023/05/14 13:14:22;;;;;;;2.92;1.80;;;23.60;99.90;;;;;;10277782;29;20202;-77
2023/05/14 13:19:43;;;;;;;4.00;1.80;;;23.60;99.90;;;;;;10278102;28;20191;-75
2023/05/14 13:25:05;;;;;;;2.20;1.80;;;23.80;99.90;;;;;;10270554;28;20262;-78
2023/05/14 13:30:27;;;;;;;2.42;1.85;;;23.70;99.90;;;;;;10276330;28;20238;-75
2023/05/14 13:35:47;;;;;;;4.35;2.03;;;23.90;99.90;;;;;;10278786;28;20497;-77
2023/05/14 13:41:09;;;;;;;2.50;1.88;;;23.80;99.90;;;;;;10281174;28;20202;-77
2023/05/14 13:46:30;;;;;;;5.28;1.63;;;23.60;99.90;;;;;;10287160;28;20231;-76
2023/05/14 13:51:50;;;;;;;5.00;2.15;;;23.30;99.90;;;;;;10274847;28;20207;-77
2023/05/14 13:57:11;;;;;;;5.88;2.75;;;23.20;99.90;;;;;;10256776;28;20218;-78
2023/05/14 14:02:32;;;;;;;5.38;2.60;;;23.30;99.90;;;;;;10300159;28;20238;-76
2023/05/14 14:07:54;;;;;;;6.63;2.83;;;23.50;99.90;;;;;;10275871;29;20512;-77
2023/05/14 14:13:17;;;;;;;6.55;4.05;;;23.60;99.90;;;;;;10294351;28;20209;-76
2023/05/14 14:18:38;;;;;;;5.60;3.28;;;23.60;99.90;;;;;;10307591;28;20190;-78
2023/05/14 14:23:59;;;;;;;5.25;2.75;;;23.50;99.90;;;;;;10275309;29;20238;-77
2023/05/14 14:29:22;;;;;;;3.30;2.63;;;23.50;99.90;;;;;;10288634;28;20213;-75
2023/05/14 14:34:43;;;;;;;7.50;3.78;;;23.40;99.90;;;;;;10311966;28;20198;-77
2023/05/14 14:40:08;;;;;;;5.88;3.97;;;23.20;99.90;;;;;;10313843;28;20217;-78
2023/05/14 14:45:30;;;;;;;7.43;4.35;;;23.10;99.90;;;;;;10308939;28;20237;-75
2023/05/14 14:50:51;;;;;;;9.23;5.78;;;23.00;99.90;;;;;;10314716;28;20194;-79
2023/05/14 14:56:12;;;;;;;6.78;3.95;;;23.10;99.90;;;;;;10314958;28;20244;-79
2023/05/14 15:01:33;;;;;;;6.13;4.15;;;23.10;99.90;;;;;;10307161;28;20274;-76
2023/05/14 15:06:53;;;;;;;4.38;3.25;;;23.10;99.90;;;;;;10297849;28;20228;-76
2023/05/14 15:12:15;;;;;;;3.97;2.70;;;23.10;99.90;;;;;;10314192;28;20409;-78
2023/05/14 15:17:36;;;;;;;3.25;2.40;;;23.20;99.90;;;;;;10293676;28;20229;-77
2023/05/14 15:22:58;;;;;;;6.32;2.72;;;23.20;99.90;;;;;;10273217;28;20198;-79
2023/05/14 15:28:18;;;;;;;3.42;2.28;;;23.00;99.90;;;;;;10273696;28;20238;-75
2023/05/14 15:33:40;;;;;;;4.70;2.03;;;22.90;99.90;;;;;;10301644;28;20276;-78
2023/05/14 15:39:01;;;;;;;3.67;1.98;;;22.70;99.90;;;;;;10312454;28;20220;-76
2023/05/14 15:44:23;;;;;;;3.28;2.60;;;22.50;99.90;;;;;;10310463;28;20229;-77
2023/05/14 15:49:44;;;;;;;5.47;2.30;;;22.30;99.90;;;;;;10277993;28;20354;-77
2023/05/14 15:55:05;;;;;;;2.72;1.80;;;;;;;;;;10273384;28;20195;-78
2023/05/14 16:00:26;;;;;;;3.22;2.22;;;;;;;;;;10273491;28;20218;-76
2023/05/14 16:05:48;;;;;;;3.97;2.30;;;;;;;;;;10281605;28;20227;-76
2023/05/14 16:11:09;;;;;;;3.15;2.10;;;;;;;;;;10273216;28;20238;-76
2023/05/14 16:16:31;;;;;;;2.75;2.17;;;;;;;;;;10285993;28;20236;-77
2023/05/14 16:21:52;;;;;;;8.60;2.35;;;;;;;;;;10288888;28;20191;-77
2023/05/14 16:27:14;;;;;;;2.65;2.15;;;;;;;;;;10279843;28;20234;-75
2023/05/14 16:32:35;;;;;;;3.33;2.40;;;;;;;;;;10296487;28;20212;-77
2023/05/14 16:37:56;;;;;;;3.67;2.45;;;21.90;99.90;;;;;;10319898;28;20202;-76
2023/05/14 16:43:17;;;;;;;5.30;3.00;;;21.70;99.90;;;;;;10319514;28;20197;-76
2023/05/14 16:48:38;;;;;;;3.95;2.50;;;21.50;99.90;;;;;;10292352;28;20234;-78
2023/05/14 16:53:59;;;;;;;4.95;3.22;;;21.40;99.90;;;;;;10279002;28;20193;-78
2023/05/14 16:59:20;;;;;;;9.18;3.65;;;21.20;99.90;;;;;;10277971;28;20359;-78
2023/05/14 17:04:42;;;;;;;6.10;3.53;;;21.10;99.90;;;;;;10296847;28;20230;-77
2023/05/14 17:10:04;;;;;;;5.07;3.38;;;21.10;99.90;;;;;;10295950;28;20303;-78
2023/05/14 17:15:25;;;;;;;3.53;2.58;;;21.00;99.90;;;;;;10312900;28;20206;-76
2023/05/14 17:20:46;;;;;;;5.35;3.00;;;20.90;99.90;;;;;;10295782;28;20486;-76
2023/05/14 17:26:07;;;;;;;5.90;3.35;;;20.90;99.90;;;;;;10277338;28;20231;-75
2023/05/14 17:31:29;;;;;;;8.82;3.40;;;20.90;99.90;;;;;;10296560;28;20236;-75
2023/05/14 17:36:50;;;;;;;11.20;4.43;;;20.80;99.90;;;;;;10317481;28;20190;-75
2023/05/14 17:42:11;;;;;;;5.88;3.55;;;20.60;99.90;;;;;;10317233;28;20197;-74
2023/05/14 17:47:32;;;;;;;6.75;3.78;;;20.50;99.90;;;;;;10286114;28;20524;-75
2023/05/14 17:52:53;;;;;;;7.15;3.83;;;20.40;99.90;;;;;;10276968;28;20214;-76
2023/05/14 17:58:15;;;;;;;5.32;4.05;;;20.40;99.90;;;;;;10275790;28;20266;-74
2023/05/14 18:03:36;;;;;;;10.10;4.57;;;20.30;99.90;;;;;;10302458;28;20379;-75
2023/05/14 18:08:57;;;;;;;7.25;4.45;;;20.30;99.90;;;;;;10282945;28;20226;-74
2023/05/14 18:14:19;;;;;;;6.32;4.60;;;20.20;99.90;;;;;;10291915;28;20209;-75
2023/05/14 18:19:39;;;;;;;6.68;4.50;;;20.00;99.90;;;;;;10299068;28;20192;-76
2023/05/14 18:25:00;;;;;;;4.93;3.67;;;19.90;99.90;;;;;;10315433;28;20241;-76
2023/05/14 18:30:21;;;;;;;6.28;4.00;;;19.80;99.90;;;;;;10292888;28;20505;-78
2023/05/14 18:35:42;;;;;;;6.82;4.03;;;19.70;99.90;;;;;;10285984;28;20213;-77
2023/05/14 18:41:04;;;;;;;9.35;3.70;;;19.50;99.90;;;;;;10315059;28;20221;-76
2023/05/14 18:46:25;;;;;;;8.10;4.22;;;19.50;99.90;;;;;;10311254;28;20230;-77
2023/05/14 18:51:46;;;;;;;5.47;3.33;;;19.40;99.90;;;;;;10310891;28;20202;-77
2023/05/14 18:57:07;;;;;;;7.90;3.78;;;19.30;99.90;;;;;;10314624;28;20198;-77
2023/05/14 19:02:28;;;;;;;6.47;4.00;;;19.20;99.90;;;;;;10310580;28;20197;-76
2023/05/14 19:07:50;;;;;;;4.10;3.20;;;19.00;99.90;;;;;;10272056;28;20249;-76
2023/05/14 19:13:11;;;;;;;5.65;4.32;;;18.90;99.90;;;;;;10241814;29;20214;-77
2023/05/14 19:18:32;;;;;;;9.07;7.90;;;18.80;99.90;;;;;;10272944;28;20237;-76
2023/05/14 19:23:53;;;;;;;7.18;5.90;;;18.80;99.90;;;;;;10273070;28;20227;-75
2023/05/14 19:29:14;;;;;;;6.53;4.32;;;18.60;99.90;;;;;;10273472;28;20234;-77
2023/05/14 19:34:35;;;;;;;8.07;4.50;;;18.50;99.90;;;;;;10283644;28;20445;-76
2023/05/14 19:39:56;;;;;;;5.55;3.70;;;18.40;99.90;;;;;;10277946;28;20203;-77
2023/05/14 19:45:17;;;;;;;6.78;4.05;;;18.30;99.90;;;;;;10273303;28;20214;-78
2023/05/14 19:50:38;;;;;;;6.55;3.92;;;18.20;99.90;;;;;;10294767;28;20225;-75
2023/05/14 19:56:00;;;;;;;4.78;3.53;;;18.20;99.90;;;;;;10292891;28;20202;-76
2023/05/14 20:01:21;;;;;;;6.13;3.70;;;18.20;99.90;;;;;;10281244;29;20561;-76
2023/05/14 20:06:44;;;;;;;8.40;4.70;;;18.20;99.90;;;;;;10294017;28;20410;-77
2023/05/14 20:12:06;;;;;;;8.82;4.10;;;18.20;99.90;;;;;;10279329;28;20286;-76
2023/05/14 20:17:27;;;;;;;7.97;4.72;;;18.10;99.90;;;;;;10278618;28;20213;-76
2023/05/14 20:22:48;;;;;;;6.18;3.75;;;18.10;99.90;;;;;;10322310;28;20489;-77
2023/05/14 20:28:09;;;;;;;8.23;4.60;;;18.10;99.90;;;;;;10309347;28;20231;-78
2023/05/14 20:33:31;;;;;;;6.38;4.13;;;18.10;99.90;;;;;;10292852;28;20226;-78
2023/05/14 20:38:52;;;;;;;12.57;5.18;;;18.00;99.90;;;;;;10281230;28;20501;-76
2023/05/14 20:44:13;;;;;;;8.48;4.60;;;18.00;99.90;;;;;;10280856;28;20203;-76
2023/05/14 20:49:34;;;;;;;8.43;4.32;;;17.90;99.90;;;;;;10300364;28;20230;-77
2023/05/14 20:54:55;;;;;;;8.13;4.50;;;17.80;99.90;;;;;;10320865;28;20270;-76
2023/05/14 21:00:17;;;;;;;7.88;5.13;;;17.80;99.90;;;;;;10320525;28;20236;-78
2023/05/14 21:05:40;;;;;;;11.02;6.07;;;17.70;99.90;;;;;;10285311;28;20233;-75
2023/05/14 21:11:01;;;;;;;9.15;5.38;;;17.70;99.90;;;;;;10279598;29;20222;-78
2023/05/14 21:16:22;;;;;;;11.15;5.82;;;17.60;99.90;;;;;;10278977;29;20195;-77
2023/05/14 21:21:43;;;;;;;8.10;4.93;;;17.50;99.90;;;;;;10279101;28;20197;-76
2023/05/14 21:27:04;;;;;;;7.82;4.18;;;17.50;99.90;;;;;;10278193;28;20462;-79
2023/05/14 21:32:25;;;;;;;11.05;5.13;;;17.50;99.90;;;;;;10310963;28;20202;-76
2023/05/14 21:37:46;;;;;;;7.20;4.25;;;17.50;99.90;;;;;;10318964;28;20190;-77
2023/05/14 21:43:07;;;;;;;7.28;4.32;;;17.50;99.90;;;;;;10319050;28;20236;-79
2023/05/14 21:48:28;;;;;;;7.20;4.22;;;17.40;99.90;;;;;;10299377;28;20233;-78
2023/05/14 21:53:49;;;;;;;10.00;5.40;;;17.40;99.90;;;;;;10317628;28;20241;-78
2023/05/14 21:59:10;;;;;;;14.45;5.90;;;17.30;99.90;;;;;;10316130;28;20205;-77
2023/05/14 22:04:31;;;;;;;15.63;6.72;;;17.30;99.90;;;;;;10305549;28;20203;-76
2023/05/14 22:09:53;;;;;;;14.75;6.97;;;;;;;;;;10276666;28;20199;-77
2023/05/14 22:15:14;;;;;;;20.98;7.80;;;17.30;99.90;;;;;;10276285;28;20191;-78
2023/05/14 22:20:35;;;;;;;21.23;9.00;;;17.20;99.90;;;;;;10300710;28;20199;-78
2023/05/14 22:25:56;;;;;;;22.30;10.25;;;17.20;99.90;;;;;;10315995;28;20238;-77
2023/05/14 22:31:18;;;;;;;23.88;9.98;;;17.10;99.90;;;;;;10278612;28;20433;-79
2023/05/14 22:36:38;;;;;;;17.25;8.25;;;17.10;99.90;;;;;;10278356;28;20250;-76
2023/05/14 22:41:59;;;;;;;12.75;6.55;;;17.00;99.90;;;;;;10275204;28;20222;-76
2023/05/14 22:47:20;;;;;;;8.63;5.03;;;17.00;99.90;;;;;;10277647;28;20218;-77
2023/05/14 22:52:41;;;;;;;10.60;5.45;;;16.90;99.90;;;;;;10313553;28;20390;-76
2023/05/14 22:58:02;;;;;;;11.48;5.38;;;16.80;99.90;;;;;;10313754;28;20411;-77
2023/05/14 23:03:24;;;;;;;6.88;4.30;;;16.80;99.90;;;;;;10297503;28;20251;-78
2023/05/14 23:08:44;;;;;;;6.35;4.22;;;16.80;99.90;;;;;;10274331;29;20227;-78
2023/05/14 23:14:05;;;;;;;12.20;5.10;;;16.80;99.90;;;;;;10274186;28;20242;-76
2023/05/14 23:19:26;;;;;;;18.08;6.40;;;16.70;99.90;;;;;;10298422;28;20198;-76
2023/05/14 23:24:47;;;;;;;10.23;4.53;;;16.60;99.90;;;;;;10314063;28;20228;-77
2023/05/14 23:30:09;;;;;;;11.20;4.85;;;16.60;99.90;;;;;;10294935;28;20214;-76
2023/05/14 23:35:30;;;;;;;6.45;3.90;;;16.50;99.90;;;;;;10316619;28;20504;-76
2023/05/14 23:40:51;;;;;;;5.82;4.15;;;16.50;99.90;;;;;;10321991;28;20230;-79
2023/05/14 23:46:12;;;;;;;5.85;3.88;;;16.40;99.90;;;;;;10315022;28;20218;-77
2023/05/14 23:51:33;;;;;;;6.38;4.00;;;16.40;99.90;;;;;;10281537;28;20226;-77
2023/05/14 23:56:54;;;;;;;6.35;3.50;;;16.40;99.90;;;;;;10281496;28;20195;-77
